sensor_id;sensor_type;location;lat;lon;timestamp;temperature;humidity
2783;DHT22;1399;47.072;15.452;2023-07-31T00:00:33;20.10;85.70
2783;DHT22;1399;47.072;15.452;2023-07-31T00:02:59;20.10;85.70
2783;DHT22;1399;47.072;15.452;2023-07-31T00:05:25;20.10;85.70
2783;DHT22;1399;47.072;15.452;2023-07-31T00:07:50;20.10;85.70
2783;DHT22;1399;47.072;15.452;2023-07-31T00:10:16;20.10;85.70
2783;DHT22;1399;47.072;15.452;2023-07-31T00:12:44;20.10;85.60
2783;DHT22;1399;47.072;15.452;2023-07-31T00:15:10;20.10;85.60
2783;DHT22;1399;47.072;15.452;2023-07-31T00:17:37;20.10;85.60
2783;DHT22;1399;47.072;15.452;2023-07-31T00:20:03;20.10;85.60
2783;DHT22;1399;47.072;15.452;2023-07-31T00:22:29;20.10;85.70
2783;DHT22;1399;47.072;15.452;2023-07-31T00:24:56;20.00;85.60
2783;DHT22;1399;47.072;15.452;2023-07-31T00:27:22;20.00;85.60
2783;DHT22;1399;47.072;15.452;2023-07-31T00:29:48;20.00;85.60
2783;DHT22;1399;47.072;15.452;2023-07-31T00:32:14;20.00;85.70
2783;DHT22;1399;47.072;15.452;2023-07-31T00:34:39;20.00;85.70
2783;DHT22;1399;47.072;15.452;2023-07-31T00:37:05;20.00;85.80
2783;DHT22;1399;47.072;15.452;2023-07-31T00:39:31;20.00;86.00
2783;DHT22;1399;47.072;15.452;2023-07-31T00:41:57;20.00;86.10
2783;DHT22;1399;47.072;15.452;2023-07-31T00:44:23;20.00;86.20
2783;DHT22;1399;47.072;15.452;2023-07-31T00:46:49;20.00;86.40
2783;DHT22;1399;47.072;15.452;2023-07-31T00:49:15;19.90;86.40
2783;DHT22;1399;47.072;15.452;2023-07-31T00:51:41;19.90;86.50
2783;DHT22;1399;47.072;15.452;2023-07-31T00:54:07;19.90;86.60
2783;DHT22;1399;47.072;15.452;2023-07-31T00:56:34;19.90;86.70
2783;DHT22;1399;47.072;15.452;2023-07-31T00:59:00;19.90;86.70
2783;DHT22;1399;47.072;15.452;2023-07-31T01:01:26;19.90;86.80
2783;DHT22;1399;47.072;15.452;2023-07-31T01:03:52;19.90;86.90
2783;DHT22;1399;47.072;15.452;2023-07-31T01:06:40;19.90;86.90
2783;DHT22;1399;47.072;15.452;2023-07-31T01:11:57;19.90;86.80
2783;DHT22;1399;47.072;15.452;2023-07-31T01:14:25;19.80;86.70
2783;DHT22;1399;47.072;15.452;2023-07-31T01:16:51;19.90;87.10
2783;DHT22;1399;47.072;15.452;2023-07-31T01:19:20;19.80;86.90
2783;DHT22;1399;47.072;15.452;2023-07-31T01:27:17;19.80;87.30
2783;DHT22;1399;47.072;15.452;2023-07-31T01:29:53;19.80;87.40
2783;DHT22;1399;47.072;15.452;2023-07-31T01:32:22;19.70;87.50
2783;DHT22;1399;47.072;15.452;2023-07-31T01:34:49;19.70;87.60
2783;DHT22;1399;47.072;15.452;2023-07-31T01:37:16;19.70;87.60
2783;DHT22;1399;47.072;15.452;2023-07-31T01:39:42;19.70;87.60
2783;DHT22;1399;47.072;15.452;2023-07-31T01:42:07;19.70;87.70
2783;DHT22;1399;47.072;15.452;2023-07-31T01:44:33;19.70;87.70
2783;DHT22;1399;47.072;15.452;2023-07-31T01:46:59;19.70;87.70
2783;DHT22;1399;47.072;15.452;2023-07-31T01:49:25;19.70;87.70
2783;DHT22;1399;47.072;15.452;2023-07-31T01:51:51;19.70;87.60
2783;DHT22;1399;47.072;15.452;2023-07-31T01:54:17;19.60;87.50
2783;DHT22;1399;47.072;15.452;2023-07-31T01:56:42;19.60;87.40
2783;DHT22;1399;47.072;15.452;2023-07-31T01:59:08;19.60;87.40
2783;DHT22;1399;47.072;15.452;2023-07-31T02:01:34;19.60;87.40
2783;DHT22;1399;47.072;15.452;2023-07-31T02:03:59;19.60;87.40
2783;DHT22;1399;47.072;15.452;2023-07-31T02:06:25;19.50;87.20
2783;DHT22;1399;47.072;15.452;2023-07-31T02:08:51;19.50;87.20
2783;DHT22;1399;47.072;15.452;2023-07-31T02:11:17;19.50;87.20
2783;DHT22;1399;47.072;15.452;2023-07-31T02:13:43;19.50;87.10
2783;DHT22;1399;47.072;15.452;2023-07-31T02:16:08;19.50;87.10
2783;DHT22;1399;47.072;15.452;2023-07-31T02:18:34;19.50;87.10
2783;DHT22;1399;47.072;15.452;2023-07-31T02:21:00;19.50;87.10
2783;DHT22;1399;47.072;15.452;2023-07-31T02:23:25;19.50;87.10
2783;DHT22;1399;47.072;15.452;2023-07-31T02:25:51;19.50;87.20
2783;DHT22;1399;47.072;15.452;2023-07-31T02:28:17;19.50;87.20
2783;DHT22;1399;47.072;15.452;2023-07-31T02:30:46;19.50;87.30
2783;DHT22;1399;47.072;15.452;2023-07-31T02:33:11;19.50;87.40
2783;DHT22;1399;47.072;15.452;2023-07-31T02:35:37;19.50;87.40
2783;DHT22;1399;47.072;15.452;2023-07-31T02:38:03;19.40;87.40
2783;DHT22;1399;47.072;15.452;2023-07-31T02:40:29;19.40;87.40
2783;DHT22;1399;47.072;15.452;2023-07-31T02:42:55;19.40;87.50
2783;DHT22;1399;47.072;15.452;2023-07-31T02:45:20;19.40;87.70
2783;DHT22;1399;47.072;15.452;2023-07-31T02:47:46;19.40;87.80
2783;DHT22;1399;47.072;15.452;2023-07-31T02:50:12;19.40;87.90
2783;DHT22;1399;47.072;15.452;2023-07-31T02:52:37;19.40;87.90
2783;DHT22;1399;47.072;15.452;2023-07-31T02:55:03;19.40;88.00
2783;DHT22;1399;47.072;15.452;2023-07-31T02:57:29;19.40;88.00
2783;DHT22;1399;47.072;15.452;2023-07-31T02:59:55;19.40;88.00
2783;DHT22;1399;47.072;15.452;2023-07-31T03:02:20;19.40;88.00
2783;DHT22;1399;47.072;15.452;2023-07-31T03:04:46;19.30;87.90
2783;DHT22;1399;47.072;15.452;2023-07-31T03:07:12;19.30;88.80
2783;DHT22;1399;47.072;15.452;2023-07-31T03:09:37;19.30;88.00
2783;DHT22;1399;47.072;15.452;2023-07-31T03:12:03;19.30;88.00
2783;DHT22;1399;47.072;15.452;2023-07-31T03:14:29;19.30;88.10
2783;DHT22;1399;47.072;15.452;2023-07-31T03:16:55;19.20;87.90
2783;DHT22;1399;47.072;15.452;2023-07-31T03:19:21;19.20;87.90
2783;DHT22;1399;47.072;15.452;2023-07-31T03:21:46;19.20;87.90
2783;DHT22;1399;47.072;15.452;2023-07-31T03:24:12;19.20;87.90
2783;DHT22;1399;47.072;15.452;2023-07-31T03:26:38;19.20;87.90
2783;DHT22;1399;47.072;15.452;2023-07-31T03:29:07;19.10;87.70
2783;DHT22;1399;47.072;15.452;2023-07-31T03:31:33;19.20;87.80
2783;DHT22;1399;47.072;15.452;2023-07-31T03:33:59;19.20;87.70
2783;DHT22;1399;47.072;15.452;2023-07-31T03:36:24;19.10;87.60
2783;DHT22;1399;47.072;15.452;2023-07-31T03:38:51;19.10;87.50
2783;DHT22;1399;47.072;15.452;2023-07-31T03:41:17;19.10;87.50
2783;DHT22;1399;47.072;15.452;2023-07-31T03:43:45;19.10;87.50
2783;DHT22;1399;47.072;15.452;2023-07-31T03:46:10;19.10;88.30
2783;DHT22;1399;47.072;15.452;2023-07-31T03:48:36;19.10;87.40
2783;DHT22;1399;47.072;15.452;2023-07-31T03:51:02;19.10;87.40
2783;DHT22;1399;47.072;15.452;2023-07-31T03:53:27;19.00;87.30
2783;DHT22;1399;47.072;15.452;2023-07-31T03:55:53;19.10;87.40
2783;DHT22;1399;47.072;15.452;2023-07-31T03:58:19;19.00;87.30
2783;DHT22;1399;47.072;15.452;2023-07-31T04:00:45;19.10;87.50
2783;DHT22;1399;47.072;15.452;2023-07-31T04:03:11;19.00;87.40
2783;DHT22;1399;47.072;15.452;2023-07-31T04:05:38;19.00;87.40
2783;DHT22;1399;47.072;15.452;2023-07-31T04:08:05;19.00;87.40
2783;DHT22;1399;47.072;15.452;2023-07-31T04:10:31;19.10;87.60
2783;DHT22;1399;47.072;15.452;2023-07-31T04:12:59;19.00;87.40
2783;DHT22;1399;47.072;15.452;2023-07-31T04:15:26;19.00;87.40
2783;DHT22;1399;47.072;15.452;2023-07-31T04:17:52;19.00;87.50
2783;DHT22;1399;47.072;15.452;2023-07-31T04:20:17;19.00;87.50
2783;DHT22;1399;47.072;15.452;2023-07-31T04:22:43;19.00;87.50
2783;DHT22;1399;47.072;15.452;2023-07-31T04:25:09;19.00;87.50
2783;DHT22;1399;47.072;15.452;2023-07-31T04:27:34;19.00;87.40
2783;DHT22;1399;47.072;15.452;2023-07-31T04:30:00;19.00;87.40
2783;DHT22;1399;47.072;15.452;2023-07-31T04:32:26;19.00;87.40
2783;DHT22;1399;47.072;15.452;2023-07-31T04:34:52;19.00;87.40
2783;DHT22;1399;47.072;15.452;2023-07-31T04:37:17;19.00;87.40
2783;DHT22;1399;47.072;15.452;2023-07-31T04:39:43;19.00;87.20
2783;DHT22;1399;47.072;15.452;2023-07-31T04:42:09;19.10;87.30
2783;DHT22;1399;47.072;15.452;2023-07-31T04:44:35;19.10;87.20
2783;DHT22;1399;47.072;15.452;2023-07-31T04:47:01;19.10;87.10
2783;DHT22;1399;47.072;15.452;2023-07-31T04:49:27;19.10;87.10
2783;DHT22;1399;47.072;15.452;2023-07-31T04:51:53;19.10;87.00
2783;DHT22;1399;47.072;15.452;2023-07-31T04:54:19;19.10;86.90
2783;DHT22;1399;47.072;15.452;2023-07-31T04:56:44;19.10;86.80
2783;DHT22;1399;47.072;15.452;2023-07-31T04:59:10;19.10;86.70
2783;DHT22;1399;47.072;15.452;2023-07-31T05:01:36;19.10;86.60
2783;DHT22;1399;47.072;15.452;2023-07-31T05:04:02;19.20;86.50
2783;DHT22;1399;47.072;15.452;2023-07-31T05:06:27;19.20;86.40
2783;DHT22;1399;47.072;15.452;2023-07-31T05:08:53;19.20;86.30
2783;DHT22;1399;47.072;15.452;2023-07-31T05:11:19;19.20;86.20
2783;DHT22;1399;47.072;15.452;2023-07-31T05:13:44;19.20;86.10
2783;DHT22;1399;47.072;15.452;2023-07-31T05:16:10;19.30;86.10
2783;DHT22;1399;47.072;15.452;2023-07-31T05:18:36;19.30;86.00
2783;DHT22;1399;47.072;15.452;2023-07-31T05:21:01;19.30;85.90
2783;DHT22;1399;47.072;15.452;2023-07-31T05:23:27;19.30;85.70
2783;DHT22;1399;47.072;15.452;2023-07-31T05:25:53;19.40;85.80
2783;DHT22;1399;47.072;15.452;2023-07-31T05:28:20;19.40;85.60
2783;DHT22;1399;47.072;15.452;2023-07-31T05:30:46;19.40;85.50
2783;DHT22;1399;47.072;15.452;2023-07-31T05:33:12;19.50;85.40
2783;DHT22;1399;47.072;15.452;2023-07-31T05:35:37;19.50;85.20
2783;DHT22;1399;47.072;15.452;2023-07-31T05:38:04;19.50;85.10
2783;DHT22;1399;47.072;15.452;2023-07-31T05:40:33;19.60;85.10
2783;DHT22;1399;47.072;15.452;2023-07-31T05:42:58;19.60;85.00
2783;DHT22;1399;47.072;15.452;2023-07-31T05:45:25;19.60;84.90
2783;DHT22;1399;47.072;15.452;2023-07-31T05:47:51;19.70;84.90
2783;DHT22;1399;47.072;15.452;2023-07-31T05:50:16;19.70;84.70
2783;DHT22;1399;47.072;15.452;2023-07-31T05:52:42;19.80;84.80
2783;DHT22;1399;47.072;15.452;2023-07-31T05:55:08;19.80;84.80
2783;DHT22;1399;47.072;15.452;2023-07-31T05:57:34;19.80;84.70
2783;DHT22;1399;47.072;15.452;2023-07-31T06:00:00;19.90;84.60
2783;DHT22;1399;47.072;15.452;2023-07-31T06:02:25;20.00;84.50
2783;DHT22;1399;47.072;15.452;2023-07-31T06:04:51;20.40;84.30
2783;DHT22;1399;47.072;15.452;2023-07-31T06:07:17;21.40;82.90
2783;DHT22;1399;47.072;15.452;2023-07-31T06:09:42;23.10;78.60
2783;DHT22;1399;47.072;15.452;2023-07-31T06:12:08;24.70;73.10
2783;DHT22;1399;47.072;15.452;2023-07-31T06:14:34;26.20;67.40
2783;DHT22;1399;47.072;15.452;2023-07-31T06:17:00;27.20;62.30
2783;DHT22;1399;47.072;15.452;2023-07-31T06:19:25;28.10;59.20
2783;DHT22;1399;47.072;15.452;2023-07-31T06:21:51;28.90;56.80
2783;DHT22;1399;47.072;15.452;2023-07-31T06:24:17;29.50;54.80
2783;DHT22;1399;47.072;15.452;2023-07-31T06:26:45;30.10;53.30
2783;DHT22;1399;47.072;15.452;2023-07-31T06:29:11;30.50;52.00
2783;DHT22;1399;47.072;15.452;2023-07-31T06:31:37;31.00;51.00
2783;DHT22;1399;47.072;15.452;2023-07-31T06:34:02;31.50;50.00
2783;DHT22;1399;47.072;15.452;2023-07-31T06:36:28;31.90;49.00
2783;DHT22;1399;47.072;15.452;2023-07-31T06:38:54;32.30;48.20
2783;DHT22;1399;47.072;15.452;2023-07-31T06:41:20;32.60;47.50
2783;DHT22;1399;47.072;15.452;2023-07-31T06:43:45;32.80;47.00
2783;DHT22;1399;47.072;15.452;2023-07-31T06:46:11;32.80;46.60
2783;DHT22;1399;47.072;15.452;2023-07-31T06:48:37;32.60;46.70
2783;DHT22;1399;47.072;15.452;2023-07-31T06:51:03;32.50;46.70
2783;DHT22;1399;47.072;15.452;2023-07-31T06:53:29;32.50;46.80
2783;DHT22;1399;47.072;15.452;2023-07-31T06:55:55;32.30;46.90
2783;DHT22;1399;47.072;15.452;2023-07-31T06:58:21;32.20;46.90
2783;DHT22;1399;47.072;15.452;2023-07-31T07:00:46;31.90;47.10
2783;DHT22;1399;47.072;15.452;2023-07-31T07:03:14;31.60;47.60
2783;DHT22;1399;47.072;15.452;2023-07-31T07:05:40;31.10;48.20
2783;DHT22;1399;47.072;15.452;2023-07-31T07:08:06;30.70;49.10
2783;DHT22;1399;47.072;15.452;2023-07-31T07:10:32;30.30;49.90
2783;DHT22;1399;47.072;15.452;2023-07-31T07:12:57;29.90;50.60
2783;DHT22;1399;47.072;15.452;2023-07-31T07:15:23;29.60;51.30
2783;DHT22;1399;47.072;15.452;2023-07-31T07:17:49;29.30;52.00
2783;DHT22;1399;47.072;15.452;2023-07-31T07:20:14;29.00;52.90
2783;DHT22;1399;47.072;15.452;2023-07-31T07:22:40;28.80;53.50
2783;DHT22;1399;47.072;15.452;2023-07-31T07:25:08;28.50;54.10
2783;DHT22;1399;47.072;15.452;2023-07-31T07:27:34;28.20;54.60
2783;DHT22;1399;47.072;15.452;2023-07-31T07:30:00;28.00;55.20
2783;DHT22;1399;47.072;15.452;2023-07-31T07:32:26;27.80;56.00
2783;DHT22;1399;47.072;15.452;2023-07-31T07:34:52;27.50;56.10
2783;DHT22;1399;47.072;15.452;2023-07-31T07:37:17;27.30;56.90
2783;DHT22;1399;47.072;15.452;2023-07-31T07:39:43;27.10;57.70
2783;DHT22;1399;47.072;15.452;2023-07-31T07:42:10;27.00;58.30
2783;DHT22;1399;47.072;15.452;2023-07-31T07:44:35;26.80;58.80
2783;DHT22;1399;47.072;15.452;2023-07-31T07:47:01;26.60;59.20
2783;DHT22;1399;47.072;15.452;2023-07-31T07:49:27;26.50;59.70
2783;DHT22;1399;47.072;15.452;2023-07-31T07:51:53;26.40;60.20
2783;DHT22;1399;47.072;15.452;2023-07-31T07:54:18;26.30;60.80
2783;DHT22;1399;47.072;15.452;2023-07-31T07:56:46;26.10;61.30
2783;DHT22;1399;47.072;15.452;2023-07-31T07:59:12;26.00;62.00
2783;DHT22;1399;47.072;15.452;2023-07-31T08:01:38;25.90;62.40
2783;DHT22;1399;47.072;15.452;2023-07-31T08:04:03;25.70;62.80
2783;DHT22;1399;47.072;15.452;2023-07-31T08:06:29;25.70;63.20
2783;DHT22;1399;47.072;15.452;2023-07-31T08:08:55;25.60;63.50
2783;DHT22;1399;47.072;15.452;2023-07-31T08:11:21;25.50;63.60
2783;DHT22;1399;47.072;15.452;2023-07-31T08:13:49;25.40;63.90
2783;DHT22;1399;47.072;15.452;2023-07-31T08:16:15;25.40;64.30
2783;DHT22;1399;47.072;15.452;2023-07-31T08:18:41;25.30;64.50
2783;DHT22;1399;47.072;15.452;2023-07-31T08:21:08;25.30;64.80
2783;DHT22;1399;47.072;15.452;2023-07-31T08:23:34;25.20;65.10
2783;DHT22;1399;47.072;15.452;2023-07-31T08:25:59;25.20;65.30
2783;DHT22;1399;47.072;15.452;2023-07-31T08:28:25;25.10;65.50
2783;DHT22;1399;47.072;15.452;2023-07-31T08:30:51;25.10;65.80
2783;DHT22;1399;47.072;15.452;2023-07-31T08:33:17;25.10;66.00
2783;DHT22;1399;47.072;15.452;2023-07-31T08:35:42;25.00;66.10
2783;DHT22;1399;47.072;15.452;2023-07-31T08:38:08;25.00;66.30
2783;DHT22;1399;47.072;15.452;2023-07-31T08:40:37;25.00;66.40
2783;DHT22;1399;47.072;15.452;2023-07-31T08:43:04;25.00;66.60
2783;DHT22;1399;47.072;15.452;2023-07-31T08:45:30;25.00;66.60
2783;DHT22;1399;47.072;15.452;2023-07-31T08:47:56;25.00;66.60
2783;DHT22;1399;47.072;15.452;2023-07-31T08:50:25;25.00;66.70
2783;DHT22;1399;47.072;15.452;2023-07-31T08:52:51;25.00;66.60
2783;DHT22;1399;47.072;15.452;2023-07-31T08:55:18;25.00;66.50
2783;DHT22;1399;47.072;15.452;2023-07-31T08:57:49;25.00;66.30
2783;DHT22;1399;47.072;15.452;2023-07-31T09:00:16;25.10;66.20
2783;DHT22;1399;47.072;15.452;2023-07-31T09:02:54;25.20;66.00
2783;DHT22;1399;47.072;15.452;2023-07-31T09:05:21;25.20;65.50
2783;DHT22;1399;47.072;15.452;2023-07-31T09:07:49;25.30;65.40
2783;DHT22;1399;47.072;15.452;2023-07-31T09:10:16;25.30;65.30
2783;DHT22;1399;47.072;15.452;2023-07-31T09:12:42;25.30;65.30
2783;DHT22;1399;47.072;15.452;2023-07-31T09:15:09;25.30;65.20
2783;DHT22;1399;47.072;15.452;2023-07-31T09:17:36;25.30;65.00
2783;DHT22;1399;47.072;15.452;2023-07-31T09:20:21;25.40;64.90
2783;DHT22;1399;47.072;15.452;2023-07-31T09:22:48;25.30;64.70
2783;DHT22;1399;47.072;15.452;2023-07-31T09:25:25;25.30;64.70
2783;DHT22;1399;47.072;15.452;2023-07-31T09:30:21;25.20;65.00
2783;DHT22;1399;47.072;15.452;2023-07-31T09:32:48;25.10;65.10
2783;DHT22;1399;47.072;15.452;2023-07-31T09:35:31;25.10;65.30
2783;DHT22;1399;47.072;15.452;2023-07-31T09:38:09;25.00;65.50
2783;DHT22;1399;47.072;15.452;2023-07-31T09:40:39;25.00;65.60
2783;DHT22;1399;47.072;15.452;2023-07-31T09:43:07;25.00;65.70
2783;DHT22;1399;47.072;15.452;2023-07-31T09:45:41;24.90;65.70
2783;DHT22;1399;47.072;15.452;2023-07-31T09:48:08;24.90;65.80
2783;DHT22;1399;47.072;15.452;2023-07-31T09:50:37;24.90;65.80
2783;DHT22;1399;47.072;15.452;2023-07-31T09:53:04;24.90;65.80
2783;DHT22;1399;47.072;15.452;2023-07-31T09:55:30;25.00;65.80
2783;DHT22;1399;47.072;15.452;2023-07-31T09:57:57;25.00;65.90
2783;DHT22;1399;47.072;15.452;2023-07-31T10:00:24;24.90;65.80
2783;DHT22;1399;47.072;15.452;2023-07-31T10:02:54;24.90;65.70
2783;DHT22;1399;47.072;15.452;2023-07-31T10:05:23;25.00;65.70
2783;DHT22;1399;47.072;15.452;2023-07-31T10:07:53;25.00;65.50
2783;DHT22;1399;47.072;15.452;2023-07-31T10:10:21;25.00;65.40
2783;DHT22;1399;47.072;15.452;2023-07-31T10:12:48;25.00;65.40
2783;DHT22;1399;47.072;15.452;2023-07-31T10:15:15;25.10;65.30
2783;DHT22;1399;47.072;15.452;2023-07-31T10:17:42;25.20;65.20
2783;DHT22;1399;47.072;15.452;2023-07-31T10:20:08;25.20;65.00
2783;DHT22;1399;47.072;15.452;2023-07-31T10:22:35;25.20;65.00
2783;DHT22;1399;47.072;15.452;2023-07-31T10:25:01;25.20;65.00
2783;DHT22;1399;47.072;15.452;2023-07-31T10:27:27;25.20;65.00
2783;DHT22;1399;47.072;15.452;2023-07-31T10:29:55;25.20;65.00
2783;DHT22;1399;47.072;15.452;2023-07-31T10:32:22;25.10;64.90
2783;DHT22;1399;47.072;15.452;2023-07-31T10:34:50;25.20;65.10
2783;DHT22;1399;47.072;15.452;2023-07-31T10:37:39;25.10;65.00
2783;DHT22;1399;47.072;15.452;2023-07-31T10:40:06;25.10;65.20
2783;DHT22;1399;47.072;15.452;2023-07-31T10:42:36;25.10;65.20
2783;DHT22;1399;47.072;15.452;2023-07-31T10:45:05;25.10;65.20
2783;DHT22;1399;47.072;15.452;2023-07-31T10:47:37;25.10;65.20
2783;DHT22;1399;47.072;15.452;2023-07-31T10:50:17;25.10;65.20
2783;DHT22;1399;47.072;15.452;2023-07-31T10:52:47;25.10;65.20
2783;DHT22;1399;47.072;15.452;2023-07-31T10:57:46;25.10;65.30
2783;DHT22;1399;47.072;15.452;2023-07-31T11:02:58;25.10;65.20
2783;DHT22;1399;47.072;15.452;2023-07-31T11:05:43;25.10;65.20
2783;DHT22;1399;47.072;15.452;2023-07-31T11:10:44;25.10;65.10
2783;DHT22;1399;47.072;15.452;2023-07-31T11:13:10;25.20;65.20
2783;DHT22;1399;47.072;15.452;2023-07-31T11:15:36;25.20;65.00
2783;DHT22;1399;47.072;15.452;2023-07-31T11:18:03;25.20;64.80
2783;DHT22;1399;47.072;15.452;2023-07-31T11:20:33;25.30;64.70
2783;DHT22;1399;47.072;15.452;2023-07-31T11:23:02;25.30;64.30
2783;DHT22;1399;47.072;15.452;2023-07-31T11:25:31;25.40;64.10
2783;DHT22;1399;47.072;15.452;2023-07-31T11:28:05;25.50;64.00
2783;DHT22;1399;47.072;15.452;2023-07-31T11:30:32;25.50;63.90
2783;DHT22;1399;47.072;15.452;2023-07-31T11:32:59;25.50;63.70
2783;DHT22;1399;47.072;15.452;2023-07-31T11:35:25;25.60;63.60
2783;DHT22;1399;47.072;15.452;2023-07-31T11:37:50;25.60;63.30
2783;DHT22;1399;47.072;15.452;2023-07-31T11:40:16;25.70;63.40
2783;DHT22;1399;47.072;15.452;2023-07-31T11:42:42;25.70;63.30
2783;DHT22;1399;47.072;15.452;2023-07-31T11:45:08;25.80;63.30
2783;DHT22;1399;47.072;15.452;2023-07-31T11:47:37;25.80;63.10
2783;DHT22;1399;47.072;15.452;2023-07-31T11:50:05;25.80;63.10
2783;DHT22;1399;47.072;15.452;2023-07-31T11:52:36;25.90;63.00
2783;DHT22;1399;47.072;15.452;2023-07-31T11:55:04;25.90;62.80
2783;DHT22;1399;47.072;15.452;2023-07-31T11:57:31;25.90;62.60
2783;DHT22;1399;47.072;15.452;2023-07-31T11:59:57;25.90;62.50
2783;DHT22;1399;47.072;15.452;2023-07-31T12:02:23;25.90;62.50
2783;DHT22;1399;47.072;15.452;2023-07-31T12:04:49;25.90;62.40
2783;DHT22;1399;47.072;15.452;2023-07-31T12:07:15;26.00;62.40
2783;DHT22;1399;47.072;15.452;2023-07-31T12:09:52;26.00;62.30
2783;DHT22;1399;47.072;15.452;2023-07-31T12:12:22;26.00;62.40
2783;DHT22;1399;47.072;15.452;2023-07-31T12:14:48;26.00;62.30
2783;DHT22;1399;47.072;15.452;2023-07-31T12:17:14;26.10;62.40
2783;DHT22;1399;47.072;15.452;2023-07-31T12:19:40;26.10;62.40
2783;DHT22;1399;47.072;15.452;2023-07-31T12:22:14;26.10;62.50
2783;DHT22;1399;47.072;15.452;2023-07-31T12:24:42;26.10;62.30
2783;DHT22;1399;47.072;15.452;2023-07-31T12:27:14;26.10;62.20
2783;DHT22;1399;47.072;15.452;2023-07-31T12:29:42;26.10;63.00
2783;DHT22;1399;47.072;15.452;2023-07-31T12:32:24;26.10;62.10
2783;DHT22;1399;47.072;15.452;2023-07-31T12:34:51;26.00;62.30
2783;DHT22;1399;47.072;15.452;2023-07-31T12:37:17;25.90;62.40
2783;DHT22;1399;47.072;15.452;2023-07-31T12:39:43;25.90;62.60
2783;DHT22;1399;47.072;15.452;2023-07-31T12:42:09;25.80;62.70
2783;DHT22;1399;47.072;15.452;2023-07-31T12:44:34;25.80;62.90
2783;DHT22;1399;47.072;15.452;2023-07-31T12:47:00;25.80;63.10
2783;DHT22;1399;47.072;15.452;2023-07-31T12:49:26;25.70;64.30
2783;DHT22;1399;47.072;15.452;2023-07-31T12:51:51;25.70;63.50
2783;DHT22;1399;47.072;15.452;2023-07-31T12:54:19;25.70;63.60
2783;DHT22;1399;47.072;15.452;2023-07-31T12:56:45;25.70;63.60
2783;DHT22;1399;47.072;15.452;2023-07-31T12:59:11;25.70;63.60
2783;DHT22;1399;47.072;15.452;2023-07-31T13:01:36;25.70;63.50
2783;DHT22;1399;47.072;15.452;2023-07-31T13:04:02;25.70;63.50
2783;DHT22;1399;47.072;15.452;2023-07-31T13:06:28;25.70;63.50
2783;DHT22;1399;47.072;15.452;2023-07-31T13:08:53;25.70;63.60
2783;DHT22;1399;47.072;15.452;2023-07-31T13:11:19;25.70;63.70
2783;DHT22;1399;47.072;15.452;2023-07-31T13:13:45;25.60;63.80
2783;DHT22;1399;47.072;15.452;2023-07-31T13:16:11;25.60;63.90
2783;DHT22;1399;47.072;15.452;2023-07-31T13:18:36;25.70;63.90
2783;DHT22;1399;47.072;15.452;2023-07-31T13:21:02;25.70;63.80
2783;DHT22;1399;47.072;15.452;2023-07-31T13:23:28;25.80;63.60
2783;DHT22;1399;47.072;15.452;2023-07-31T13:25:53;25.80;63.40
2783;DHT22;1399;47.072;15.452;2023-07-31T13:28:19;25.80;63.30
2783;DHT22;1399;47.072;15.452;2023-07-31T13:30:45;25.80;63.30
2783;DHT22;1399;47.072;15.452;2023-07-31T13:33:11;25.80;63.30
2783;DHT22;1399;47.072;15.452;2023-07-31T13:35:37;25.80;63.40
2783;DHT22;1399;47.072;15.452;2023-07-31T13:38:03;25.80;63.40
2783;DHT22;1399;47.072;15.452;2023-07-31T13:40:28;25.80;63.50
2783;DHT22;1399;47.072;15.452;2023-07-31T13:42:54;25.80;63.50
2783;DHT22;1399;47.072;15.452;2023-07-31T13:45:21;25.70;63.50
2783;DHT22;1399;47.072;15.452;2023-07-31T13:47:46;25.70;63.60
2783;DHT22;1399;47.072;15.452;2023-07-31T13:50:12;25.70;63.70
2783;DHT22;1399;47.072;15.452;2023-07-31T13:52:38;25.70;63.80
2783;DHT22;1399;47.072;15.452;2023-07-31T13:55:04;25.70;63.80
2783;DHT22;1399;47.072;15.452;2023-07-31T13:57:29;25.70;63.70
2783;DHT22;1399;47.072;15.452;2023-07-31T13:59:55;25.70;63.60
2783;DHT22;1399;47.072;15.452;2023-07-31T14:02:21;25.70;63.70
2783;DHT22;1399;47.072;15.452;2023-07-31T14:04:46;25.70;63.90
2783;DHT22;1399;47.072;15.452;2023-07-31T14:07:12;25.70;63.90
2783;DHT22;1399;47.072;15.452;2023-07-31T14:09:38;25.60;64.00
2783;DHT22;1399;47.072;15.452;2023-07-31T14:12:04;25.60;64.10
2783;DHT22;1399;47.072;15.452;2023-07-31T14:14:30;25.60;64.20
2783;DHT22;1399;47.072;15.452;2023-07-31T14:16:56;25.60;64.20
2783;DHT22;1399;47.072;15.452;2023-07-31T14:19:21;25.60;64.20
2783;DHT22;1399;47.072;15.452;2023-07-31T14:21:47;25.60;64.30
2783;DHT22;1399;47.072;15.452;2023-07-31T14:24:13;25.60;64.20
2783;DHT22;1399;47.072;15.452;2023-07-31T14:26:39;25.60;64.10
2783;DHT22;1399;47.072;15.452;2023-07-31T14:29:04;25.70;63.90
2783;DHT22;1399;47.072;15.452;2023-07-31T14:31:30;25.70;63.80
2783;DHT22;1399;47.072;15.452;2023-07-31T14:33:55;25.70;63.70
2783;DHT22;1399;47.072;15.452;2023-07-31T14:36:21;25.70;63.80
2783;DHT22;1399;47.072;15.452;2023-07-31T14:38:47;25.70;63.80
2783;DHT22;1399;47.072;15.452;2023-07-31T14:41:13;25.60;63.80
2783;DHT22;1399;47.072;15.452;2023-07-31T14:43:38;25.60;63.90
2783;DHT22;1399;47.072;15.452;2023-07-31T14:46:05;25.50;64.10
2783;DHT22;1399;47.072;15.452;2023-07-31T14:48:30;25.50;64.20
2783;DHT22;1399;47.072;15.452;2023-07-31T14:50:56;25.40;64.20
2783;DHT22;1399;47.072;15.452;2023-07-31T14:53:22;25.40;64.30
2783;DHT22;1399;47.072;15.452;2023-07-31T14:55:48;25.30;64.30
2783;DHT22;1399;47.072;15.452;2023-07-31T14:58:14;25.30;64.50
2783;DHT22;1399;47.072;15.452;2023-07-31T15:00:40;25.30;64.60
2783;DHT22;1399;47.072;15.452;2023-07-31T15:03:05;25.30;64.70
2783;DHT22;1399;47.072;15.452;2023-07-31T15:05:31;25.30;65.80
2783;DHT22;1399;47.072;15.452;2023-07-31T15:07:57;25.30;64.90
2783;DHT22;1399;47.072;15.452;2023-07-31T15:10:22;25.20;64.80
2783;DHT22;1399;47.072;15.452;2023-07-31T15:12:48;25.20;64.90
2783;DHT22;1399;47.072;15.452;2023-07-31T15:15:15;25.20;65.10
2783;DHT22;1399;47.072;15.452;2023-07-31T15:17:41;25.20;65.10
2783;DHT22;1399;47.072;15.452;2023-07-31T15:20:08;25.10;65.10
2783;DHT22;1399;47.072;15.452;2023-07-31T15:22:34;25.10;65.20
2783;DHT22;1399;47.072;15.452;2023-07-31T15:25:00;25.10;65.30
2783;DHT22;1399;47.072;15.452;2023-07-31T15:27:26;25.00;65.20
2783;DHT22;1399;47.072;15.452;2023-07-31T15:29:51;25.00;65.30
2783;DHT22;1399;47.072;15.452;2023-07-31T15:32:17;25.00;65.40
2783;DHT22;1399;47.072;15.452;2023-07-31T15:34:44;25.00;65.50
2783;DHT22;1399;47.072;15.452;2023-07-31T15:37:10;25.00;65.60
2783;DHT22;1399;47.072;15.452;2023-07-31T15:39:36;25.00;65.60
2783;DHT22;1399;47.072;15.452;2023-07-31T15:42:01;25.00;65.60
2783;DHT22;1399;47.072;15.452;2023-07-31T15:44:27;25.00;65.60
2783;DHT22;1399;47.072;15.452;2023-07-31T15:46:53;25.00;65.60
2783;DHT22;1399;47.072;15.452;2023-07-31T15:49:19;25.00;65.60
2783;DHT22;1399;47.072;15.452;2023-07-31T15:51:44;25.00;65.60
2783;DHT22;1399;47.072;15.452;2023-07-31T15:54:10;24.90;65.50
2783;DHT22;1399;47.072;15.452;2023-07-31T15:56:36;24.90;65.60
2783;DHT22;1399;47.072;15.452;2023-07-31T15:59:01;24.90;65.70